sensor_id;sensor_type;location;lat;lon;timestamp;temperature;humidity
19363;DHT22;9817;50.80926400;5.16316200;2022-12-18T00:01:27;-3.40;99.90
19363;DHT22;9817;50.80926400;5.16316200;2022-12-18T00:03:54;-3.40;99.90
19363;DHT22;9817;50.80926400;5.16316200;2022-12-18T00:06:20;-3.40;99.90
19363;DHT22;9817;50.80926400;5.16316200;2022-12-18T00:08:46;-3.40;99.90
19363;DHT22;9817;50.80926400;5.16316200;2022-12-18T00:11:15;-3.60;99.90
19363;DHT22;9817;50.80926400;5.16316200;2022-12-18T00:13:41;-3.70;99.90
19363;DHT22;9817;50.80926400;5.16316200;2022-12-18T00:16:09;-3.70;99.90
19363;DHT22;9817;50.80926400;5.16316200;2022-12-18T00:18:35;-3.60;99.90
19363;DHT22;9817;50.80926400;5.16316200;2022-12-18T00:21:02;-3.60;99.90
19363;DHT22;9817;50.80926400;5.16316200;2022-12-18T00:23:29;-3.70;99.90
19363;DHT22;9817;50.80926400;5.16316200;2022-12-18T00:25:58;-3.70;99.90
19363;DHT22;9817;50.80926400;5.16316200;2022-12-18T00:28:24;-3.80;99.90
19363;DHT22;9817;50.80926400;5.16316200;2022-12-18T00:30:50;-3.90;99.90
19363;DHT22;9817;50.80926400;5.16316200;2022-12-18T00:33:18;-4.00;99.90
19363;DHT22;9817;50.80926400;5.16316200;2022-12-18T00:35:43;-4.00;99.90
19363;DHT22;9817;50.80926400;5.16316200;2022-12-18T00:38:09;-3.90;99.90
19363;DHT22;9817;50.80926400;5.16316200;2022-12-18T00:40:35;-4.00;99.90
19363;DHT22;9817;50.80926400;5.16316200;2022-12-18T00:43:00;-4.00;99.90
19363;DHT22;9817;50.80926400;5.16316200;2022-12-18T00:45:28;-3.90;99.90
19363;DHT22;9817;50.80926400;5.16316200;2022-12-18T00:47:54;-4.00;99.90
19363;DHT22;9817;50.80926400;5.16316200;2022-12-18T00:50:21;-3.90;99.90
19363;DHT22;9817;50.80926400;5.16316200;2022-12-18T00:52:47;-4.00;99.90
19363;DHT22;9817;50.80926400;5.16316200;2022-12-18T00:55:13;-4.00;99.90
19363;DHT22;9817;50.80926400;5.16316200;2022-12-18T00:57:39;-4.10;99.90
19363;DHT22;9817;50.80926400;5.16316200;2022-12-18T01:00:06;-4.10;99.90
19363;DHT22;9817;50.80926400;5.16316200;2022-12-18T01:02:32;-4.10;99.90
19363;DHT22;9817;50.80926400;5.16316200;2022-12-18T01:04:58;-4.30;99.90
19363;DHT22;9817;50.80926400;5.16316200;2022-12-18T01:07:24;-4.20;99.90
19363;DHT22;9817;50.80926400;5.16316200;2022-12-18T01:09:49;-4.30;99.90
19363;DHT22;9817;50.80926400;5.16316200;2022-12-18T01:12:15;-4.30;99.90
19363;DHT22;9817;50.80926400;5.16316200;2022-12-18T01:14:40;-4.20;99.90
19363;DHT22;9817;50.80926400;5.16316200;2022-12-18T01:17:06;-4.20;99.90
19363;DHT22;9817;50.80926400;5.16316200;2022-12-18T01:19:32;-4.30;99.90
19363;DHT22;9817;50.80926400;5.16316200;2022-12-18T01:21:58;-4.30;99.90
19363;DHT22;9817;50.80926400;5.16316200;2022-12-18T01:24:23;-4.20;99.90
19363;DHT22;9817;50.80926400;5.16316200;2022-12-18T01:26:49;-4.30;99.90
19363;DHT22;9817;50.80926400;5.16316200;2022-12-18T01:29:14;-4.30;99.90
19363;DHT22;9817;50.80926400;5.16316200;2022-12-18T01:31:40;-4.30;99.90
19363;DHT22;9817;50.80926400;5.16316200;2022-12-18T01:34:06;-4.20;99.90
19363;DHT22;9817;50.80926400;5.16316200;2022-12-18T01:36:34;-4.20;99.90
19363;DHT22;9817;50.80926400;5.16316200;2022-12-18T01:39:03;-4.20;99.90
19363;DHT22;9817;50.80926400;5.16316200;2022-12-18T01:41:30;-4.20;99.90
19363;DHT22;9817;50.80926400;5.16316200;2022-12-18T01:50:40;-4.20;99.90
19363;DHT22;9817;50.80926400;5.16316200;2022-12-18T01:53:14;-4.30;99.90
19363;DHT22;9817;50.80926400;5.16316200;2022-12-18T01:55:44;-4.40;99.90
19363;DHT22;9817;50.80926400;5.16316200;2022-12-18T01:58:12;-4.40;99.90
19363;DHT22;9817;50.80926400;5.16316200;2022-12-18T02:00:38;-4.40;99.90
19363;DHT22;9817;50.80926400;5.16316200;2022-12-18T02:03:03;-4.30;99.90
19363;DHT22;9817;50.80926400;5.16316200;2022-12-18T02:08:02;-4.30;99.90
19363;DHT22;9817;50.80926400;5.16316200;2022-12-18T02:10:45;-4.40;99.90
19363;DHT22;9817;50.80926400;5.16316200;2022-12-18T02:19:10;-4.40;99.90
19363;DHT22;9817;50.80926400;5.16316200;2022-12-18T02:21:57;-4.50;99.90
19363;DHT22;9817;50.80926400;5.16316200;2022-12-18T02:24:53;-4.50;99.90
19363;DHT22;9817;50.80926400;5.16316200;2022-12-18T02:27:22;-4.50;99.90
19363;DHT22;9817;50.80926400;5.16316200;2022-12-18T02:29:53;-4.50;99.90
19363;DHT22;9817;50.80926400;5.16316200;2022-12-18T02:32:25;-4.70;99.90
19363;DHT22;9817;50.80926400;5.16316200;2022-12-18T02:34:55;-4.70;99.90
19363;DHT22;9817;50.80926400;5.16316200;2022-12-18T02:37:22;-4.60;99.90
19363;DHT22;9817;50.80926400;5.16316200;2022-12-18T02:39:49;-4.50;99.90
19363;DHT22;9817;50.80926400;5.16316200;2022-12-18T02:42:16;-4.60;99.90
19363;DHT22;9817;50.80926400;5.16316200;2022-12-18T02:44:48;-4.60;99.90
19363;DHT22;9817;50.80926400;5.16316200;2022-12-18T02:47:16;-4.70;99.90
19363;DHT22;9817;50.80926400;5.16316200;2022-12-18T02:50:17;-4.60;99.90
19363;DHT22;9817;50.80926400;5.16316200;2022-12-18T03:03:49;-4.40;99.90
19363;DHT22;9817;50.80926400;5.16316200;2022-12-18T03:06:29;-4.40;99.90
19363;DHT22;9817;50.80926400;5.16316200;2022-12-18T03:09:02;-4.50;99.90
19363;DHT22;9817;50.80926400;5.16316200;2022-12-18T03:11:33;-4.50;99.90
19363;DHT22;9817;50.80926400;5.16316200;2022-12-18T03:14:20;-4.50;99.90
19363;DHT22;9817;50.80926400;5.16316200;2022-12-18T03:16:49;-4.40;99.90
19363;DHT22;9817;50.80926400;5.16316200;2022-12-18T03:19:19;-4.40;99.90
19363;DHT22;9817;50.80926400;5.16316200;2022-12-18T03:21:54;-4.40;99.90
19363;DHT22;9817;50.80926400;5.16316200;2022-12-18T03:24:21;-4.30;99.90
19363;DHT22;9817;50.80926400;5.16316200;2022-12-18T03:26:50;-4.40;99.90
19363;DHT22;9817;50.80926400;5.16316200;2022-12-18T03:29:32;-4.70;99.90
19363;DHT22;9817;50.80926400;5.16316200;2022-12-18T03:32:08;-4.70;99.90
19363;DHT22;9817;50.80926400;5.16316200;2022-12-18T03:34:38;-4.70;99.90
19363;DHT22;9817;50.80926400;5.16316200;2022-12-18T03:37:05;-4.70;99.90
19363;DHT22;9817;50.80926400;5.16316200;2022-12-18T03:39:31;-4.70;99.90
19363;DHT22;9817;50.80926400;5.16316200;2022-12-18T03:42:07;-4.70;99.90
19363;DHT22;9817;50.80926400;5.16316200;2022-12-18T03:47:27;-4.60;99.90
19363;DHT22;9817;50.80926400;5.16316200;2022-12-18T03:50:16;-4.70;99.90
19363;DHT22;9817;50.80926400;5.16316200;2022-12-18T03:52:55;-4.70;99.90
19363;DHT22;9817;50.80926400;5.16316200;2022-12-18T03:55:23;-4.80;99.90
19363;DHT22;9817;50.80926400;5.16316200;2022-12-18T03:57:51;-4.90;99.90
19363;DHT22;9817;50.80926400;5.16316200;2022-12-18T04:00:18;-4.90;99.90
19363;DHT22;9817;50.80926400;5.16316200;2022-12-18T04:02:55;-4.90;99.90
19363;DHT22;9817;50.80926400;5.16316200;2022-12-18T04:05:25;-5.10;99.90
19363;DHT22;9817;50.80926400;5.16316200;2022-12-18T04:07:51;-5.10;99.90
19363;DHT22;9817;50.80926400;5.16316200;2022-12-18T04:10:19;-5.10;99.90
19363;DHT22;9817;50.80926400;5.16316200;2022-12-18T04:12:45;-5.00;99.90
19363;DHT22;9817;50.80926400;5.16316200;2022-12-18T04:15:11;-5.00;99.90
19363;DHT22;9817;50.80926400;5.16316200;2022-12-18T04:17:37;-5.10;99.90
19363;DHT22;9817;50.80926400;5.16316200;2022-12-18T04:20:04;-5.10;99.90
19363;DHT22;9817;50.80926400;5.16316200;2022-12-18T04:22:30;-5.00;99.90
19363;DHT22;9817;50.80926400;5.16316200;2022-12-18T04:24:55;-5.00;99.90
19363;DHT22;9817;50.80926400;5.16316200;2022-12-18T04:27:21;-5.10;99.90
19363;DHT22;9817;50.80926400;5.16316200;2022-12-18T04:29:47;-5.30;99.90
19363;DHT22;9817;50.80926400;5.16316200;2022-12-18T04:32:12;-5.40;99.90
19363;DHT22;9817;50.80926400;5.16316200;2022-12-18T04:34:38;-5.30;99.90
19363;DHT22;9817;50.80926400;5.16316200;2022-12-18T04:37:03;-5.20;99.90
19363;DHT22;9817;50.80926400;5.16316200;2022-12-18T04:39:29;-5.20;99.90
19363;DHT22;9817;50.80926400;5.16316200;2022-12-18T04:41:55;-5.20;99.90
19363;DHT22;9817;50.80926400;5.16316200;2022-12-18T04:44:21;-5.20;99.90
19363;DHT22;9817;50.80926400;5.16316200;2022-12-18T04:46:46;-5.20;99.90
19363;DHT22;9817;50.80926400;5.16316200;2022-12-18T04:49:12;-5.20;99.90
19363;DHT22;9817;50.80926400;5.16316200;2022-12-18T04:51:38;-5.30;99.90
19363;DHT22;9817;50.80926400;5.16316200;2022-12-18T04:54:03;-5.30;99.90
19363;DHT22;9817;50.80926400;5.16316200;2022-12-18T04:56:31;-5.40;99.90
19363;DHT22;9817;50.80926400;5.16316200;2022-12-18T04:58:56;-5.50;99.90
19363;DHT22;9817;50.80926400;5.16316200;2022-12-18T05:01:22;-5.50;99.90
19363;DHT22;9817;50.80926400;5.16316200;2022-12-18T05:03:47;-5.40;99.90
19363;DHT22;9817;50.80926400;5.16316200;2022-12-18T05:06:13;-5.40;99.90
19363;DHT22;9817;50.80926400;5.16316200;2022-12-18T05:08:39;-5.40;99.90
19363;DHT22;9817;50.80926400;5.16316200;2022-12-18T05:11:10;-5.30;99.90
19363;DHT22;9817;50.80926400;5.16316200;2022-12-18T05:13:36;-5.30;99.90
19363;DHT22;9817;50.80926400;5.16316200;2022-12-18T05:16:04;-5.40;99.90
19363;DHT22;9817;50.80926400;5.16316200;2022-12-18T05:18:29;-5.30;99.90
19363;DHT22;9817;50.80926400;5.16316200;2022-12-18T05:20:55;-5.30;99.90
19363;DHT22;9817;50.80926400;5.16316200;2022-12-18T05:23:22;-5.30;99.90
19363;DHT22;9817;50.80926400;5.16316200;2022-12-18T05:25:59;-5.30;99.90
19363;DHT22;9817;50.80926400;5.16316200;2022-12-18T05:28:27;-5.30;99.90
19363;DHT22;9817;50.80926400;5.16316200;2022-12-18T05:30:58;-5.40;99.90
19363;DHT22;9817;50.80926400;5.16316200;2022-12-18T05:33:26;-5.40;99.90
19363;DHT22;9817;50.80926400;5.16316200;2022-12-18T05:35:53;-5.40;99.90
19363;DHT22;9817;50.80926400;5.16316200;2022-12-18T05:38:20;-5.30;99.90
19363;DHT22;9817;50.80926400;5.16316200;2022-12-18T05:40:46;-5.30;99.90
19363;DHT22;9817;50.80926400;5.16316200;2022-12-18T05:43:12;-5.20;99.90
19363;DHT22;9817;50.80926400;5.16316200;2022-12-18T05:45:38;-5.20;99.90
19363;DHT22;9817;50.80926400;5.16316200;2022-12-18T05:48:05;-5.30;99.90
19363;DHT22;9817;50.80926400;5.16316200;2022-12-18T05:50:33;-5.30;99.90
19363;DHT22;9817;50.80926400;5.16316200;2022-12-18T05:52:58;-5.30;99.90
19363;DHT22;9817;50.80926400;5.16316200;2022-12-18T05:55:24;-5.50;99.90
19363;DHT22;9817;50.80926400;5.16316200;2022-12-18T05:57:51;-5.60;99.90
19363;DHT22;9817;50.80926400;5.16316200;2022-12-18T06:00:17;-5.60;99.90
19363;DHT22;9817;50.80926400;5.16316200;2022-12-18T06:02:43;-5.70;99.90
19363;DHT22;9817;50.80926400;5.16316200;2022-12-18T06:05:11;-5.70;99.90
19363;DHT22;9817;50.80926400;5.16316200;2022-12-18T06:07:37;-5.80;99.90
19363;DHT22;9817;50.80926400;5.16316200;2022-12-18T06:10:02;-5.90;99.90
19363;DHT22;9817;50.80926400;5.16316200;2022-12-18T06:12:28;-5.80;99.90
19363;DHT22;9817;50.80926400;5.16316200;2022-12-18T06:14:54;-5.80;99.90
19363;DHT22;9817;50.80926400;5.16316200;2022-12-18T06:17:19;-5.80;99.90
19363;DHT22;9817;50.80926400;5.16316200;2022-12-18T06:19:45;-5.80;99.90
19363;DHT22;9817;50.80926400;5.16316200;2022-12-18T06:22:10;-5.70;99.90
19363;DHT22;9817;50.80926400;5.16316200;2022-12-18T06:24:36;-5.50;99.90
19363;DHT22;9817;50.80926400;5.16316200;2022-12-18T06:27:01;-5.50;99.90
19363;DHT22;9817;50.80926400;5.16316200;2022-12-18T06:29:27;-5.50;99.90
19363;DHT22;9817;50.80926400;5.16316200;2022-12-18T06:31:53;-5.60;99.90
19363;DHT22;9817;50.80926400;5.16316200;2022-12-18T06:34:18;-5.60;99.90
19363;DHT22;9817;50.80926400;5.16316200;2022-12-18T06:36:44;-5.60;99.90
19363;DHT22;9817;50.80926400;5.16316200;2022-12-18T06:39:09;-5.70;99.90
19363;DHT22;9817;50.80926400;5.16316200;2022-12-18T06:41:35;-5.60;99.90
19363;DHT22;9817;50.80926400;5.16316200;2022-12-18T06:44:01;-5.70;99.90
19363;DHT22;9817;50.80926400;5.16316200;2022-12-18T06:46:26;-5.60;99.90
19363;DHT22;9817;50.80926400;5.16316200;2022-12-18T06:48:52;-5.60;99.90
19363;DHT22;9817;50.80926400;5.16316200;2022-12-18T06:51:22;-5.70;99.90
19363;DHT22;9817;50.80926400;5.16316200;2022-12-18T06:53:48;-5.60;99.90
19363;DHT22;9817;50.80926400;5.16316200;2022-12-18T06:56:14;-5.60;99.90
19363;DHT22;9817;50.80926400;5.16316200;2022-12-18T06:58:40;-5.50;99.90
19363;DHT22;9817;50.80926400;5.16316200;2022-12-18T07:01:07;-5.50;99.90
19363;DHT22;9817;50.80926400;5.16316200;2022-12-18T07:03:33;-5.50;99.90
19363;DHT22;9817;50.80926400;5.16316200;2022-12-18T07:05:59;-5.50;99.90
19363;DHT22;9817;50.80926400;5.16316200;2022-12-18T07:08:25;-5.60;99.90
19363;DHT22;9817;50.80926400;5.16316200;2022-12-18T07:10:50;-5.50;99.90
19363;DHT22;9817;50.80926400;5.16316200;2022-12-18T07:13:16;-5.60;99.90
19363;DHT22;9817;50.80926400;5.16316200;2022-12-18T07:15:43;-5.60;99.90
19363;DHT22;9817;50.80926400;5.16316200;2022-12-18T07:18:09;-5.70;99.90
19363;DHT22;9817;50.80926400;5.16316200;2022-12-18T07:20:35;-5.70;99.90
19363;DHT22;9817;50.80926400;5.16316200;2022-12-18T07:23:03;-5.60;99.90
19363;DHT22;9817;50.80926400;5.16316200;2022-12-18T07:25:29;-5.50;99.90
19363;DHT22;9817;50.80926400;5.16316200;2022-12-18T07:27:54;-5.50;99.90
19363;DHT22;9817;50.80926400;5.16316200;2022-12-18T07:30:20;-5.50;99.90
19363;DHT22;9817;50.80926400;5.16316200;2022-12-18T07:32:46;-5.40;99.90
19363;DHT22;9817;50.80926400;5.16316200;2022-12-18T07:35:11;-5.40;99.90
19363;DHT22;9817;50.80926400;5.16316200;2022-12-18T07:37:37;-5.30;99.90
19363;DHT22;9817;50.80926400;5.16316200;2022-12-18T07:40:02;-5.30;99.90
19363;DHT22;9817;50.80926400;5.16316200;2022-12-18T07:42:28;-5.20;99.90
19363;DHT22;9817;50.80926400;5.16316200;2022-12-18T07:45:00;-5.10;99.90
19363;DHT22;9817;50.80926400;5.16316200;2022-12-18T07:47:28;-5.00;99.90
19363;DHT22;9817;50.80926400;5.16316200;2022-12-18T07:49:54;-4.90;99.90
19363;DHT22;9817;50.80926400;5.16316200;2022-12-18T07:52:19;-4.90;99.90
19363;DHT22;9817;50.80926400;5.16316200;2022-12-18T07:54:45;-4.80;99.90
19363;DHT22;9817;50.80926400;5.16316200;2022-12-18T07:57:10;-4.80;99.90
19363;DHT22;9817;50.80926400;5.16316200;2022-12-18T07:59:36;-4.80;99.90
19363;DHT22;9817;50.80926400;5.16316200;2022-12-18T08:02:02;-4.80;99.90
19363;DHT22;9817;50.80926400;5.16316200;2022-12-18T08:04:28;-4.90;99.90
19363;DHT22;9817;50.80926400;5.16316200;2022-12-18T08:06:54;-4.80;99.90
19363;DHT22;9817;50.80926400;5.16316200;2022-12-18T08:09:19;-4.70;99.90
19363;DHT22;9817;50.80926400;5.16316200;2022-12-18T08:11:45;-4.60;99.90
19363;DHT22;9817;50.80926400;5.16316200;2022-12-18T08:14:11;-4.60;99.90
19363;DHT22;9817;50.80926400;5.16316200;2022-12-18T08:16:36;-4.50;99.90
19363;DHT22;9817;50.80926400;5.16316200;2022-12-18T08:19:02;-4.50;99.90
19363;DHT22;9817;50.80926400;5.16316200;2022-12-18T08:21:29;-4.40;99.90
19363;DHT22;9817;50.80926400;5.16316200;2022-12-18T08:23:57;-4.30;99.90
19363;DHT22;9817;50.80926400;5.16316200;2022-12-18T08:26:24;-4.20;99.90
19363;DHT22;9817;50.80926400;5.16316200;2022-12-18T08:28:51;-4.20;99.90
19363;DHT22;9817;50.80926400;5.16316200;2022-12-18T08:31:18;-4.10;99.90
19363;DHT22;9817;50.80926400;5.16316200;2022-12-18T08:33:44;-3.90;99.90
19363;DHT22;9817;50.80926400;5.16316200;2022-12-18T08:36:10;-3.80;99.90
19363;DHT22;9817;50.80926400;5.16316200;2022-12-18T08:38:36;-3.70;99.90
19363;DHT22;9817;50.80926400;5.16316200;2022-12-18T08:41:03;-3.60;99.90
19363;DHT22;9817;50.80926400;5.16316200;2022-12-18T08:43:29;-3.60;99.90
19363;DHT22;9817;50.80926400;5.16316200;2022-12-18T08:46:15;-3.50;99.90
19363;DHT22;9817;50.80926400;5.16316200;2022-12-18T08:48:41;-3.40;99.90
19363;DHT22;9817;50.80926400;5.16316200;2022-12-18T08:51:07;-3.30;99.90
19363;DHT22;9817;50.80926400;5.16316200;2022-12-18T08:53:35;-3.10;99.90
19363;DHT22;9817;50.80926400;5.16316200;2022-12-18T08:56:00;-2.90;99.90
19363;DHT22;9817;50.80926400;5.16316200;2022-12-18T08:58:26;-2.70;99.90
19363;DHT22;9817;50.80926400;5.16316200;2022-12-18T09:00:52;-2.50;99.90
19363;DHT22;9817;50.80926400;5.16316200;2022-12-18T09:03:19;-2.30;99.90
19363;DHT22;9817;50.80926400;5.16316200;2022-12-18T09:05:48;-2.00;99.90
19363;DHT22;9817;50.80926400;5.16316200;2022-12-18T09:08:14;-1.90;99.90
19363;DHT22;9817;50.80926400;5.16316200;2022-12-18T09:10:47;-1.70;99.90
19363;DHT22;9817;50.80926400;5.16316200;2022-12-18T09:13:14;-1.50;99.90
19363;DHT22;9817;50.80926400;5.16316200;2022-12-18T09:15:54;-1.30;99.90
19363;DHT22;9817;50.80926400;5.16316200;2022-12-18T09:18:22;-1.30;99.90
19363;DHT22;9817;50.80926400;5.16316200;2022-12-18T09:20:48;-1.10;99.90
19363;DHT22;9817;50.80926400;5.16316200;2022-12-18T09:23:17;-1.00;99.90
19363;DHT22;9817;50.80926400;5.16316200;2022-12-18T09:25:42;-0.90;99.90
19363;DHT22;9817;50.80926400;5.16316200;2022-12-18T09:28:13;-0.80;99.90
19363;DHT22;9817;50.80926400;5.16316200;2022-12-18T09:30:45;-0.70;99.90
19363;DHT22;9817;50.80926400;5.16316200;2022-12-18T09:33:11;-0.60;99.90
19363;DHT22;9817;50.80926400;5.16316200;2022-12-18T09:35:38;-0.60;99.90
19363;DHT22;9817;50.80926400;5.16316200;2022-12-18T09:38:04;-0.50;99.90
19363;DHT22;9817;50.80926400;5.16316200;2022-12-18T09:40:40;-0.40;99.90
19363;DHT22;9817;50.80926400;5.16316200;2022-12-18T09:43:07;-0.30;99.90
19363;DHT22;9817;50.80926400;5.16316200;2022-12-18T09:45:44;-0.30;99.90
19363;DHT22;9817;50.80926400;5.16316200;2022-12-18T09:48:25;-0.20;99.90
19363;DHT22;9817;50.80926400;5.16316200;2022-12-18T09:50:55;-0.20;99.90
19363;DHT22;9817;50.80926400;5.16316200;2022-12-18T09:53:25;0.00;99.90
19363;DHT22;9817;50.80926400;5.16316200;2022-12-18T09:55:52;0.10;99.90
19363;DHT22;9817;50.80926400;5.16316200;2022-12-18T09:58:33;0.10;99.90
19363;DHT22;9817;50.80926400;5.16316200;2022-12-18T10:01:01;0.20;99.90
19363;DHT22;9817;50.80926400;5.16316200;2022-12-18T10:03:26;0.30;99.90
19363;DHT22;9817;50.80926400;5.16316200;2022-12-18T10:06:14;0.40;99.90
19363;DHT22;9817;50.80926400;5.16316200;2022-12-18T10:22:43;0.30;99.90
19363;DHT22;9817;50.80926400;5.16316200;2022-12-18T10:25:23;0.30;99.90
19363;DHT22;9817;50.80926400;5.16316200;2022-12-18T10:27:53;0.10;99.90
19363;DHT22;9817;50.80926400;5.16316200;2022-12-18T10:30:22;0.10;99.90
19363;DHT22;9817;50.80926400;5.16316200;2022-12-18T10:32:48;0.30;99.90
19363;DHT22;9817;50.80926400;5.16316200;2022-12-18T10:35:25;0.50;99.90
19363;DHT22;9817;50.80926400;5.16316200;2022-12-18T10:38:01;0.60;99.90
19363;DHT22;9817;50.80926400;5.16316200;2022-12-18T10:40:28;0.60;99.90
19363;DHT22;9817;50.80926400;5.16316200;2022-12-18T10:43:13;0.60;99.90
19363;DHT22;9817;50.80926400;5.16316200;2022-12-18T10:45:40;0.70;99.90
19363;DHT22;9817;50.80926400;5.16316200;2022-12-18T10:48:18;0.70;99.90
19363;DHT22;9817;50.80926400;5.16316200;2022-12-18T10:50:47;0.60;99.90
19363;DHT22;9817;50.80926400;5.16316200;2022-12-18T10:53:39;0.70;99.90
19363;DHT22;9817;50.80926400;5.16316200;2022-12-18T10:56:05;0.60;99.90
19363;DHT22;9817;50.80926400;5.16316200;2022-12-18T11:01:18;0.70;99.90
19363;DHT22;9817;50.80926400;5.16316200;2022-12-18T11:03:59;0.80;99.90
19363;DHT22;9817;50.80926400;5.16316200;2022-12-18T11:06:25;0.90;99.90
19363;DHT22;9817;50.80926400;5.16316200;2022-12-18T11:09:03;0.90;99.90
19363;DHT22;9817;50.80926400;5.16316200;2022-12-18T11:11:29;1.10;99.90
19363;DHT22;9817;50.80926400;5.16316200;2022-12-18T11:16:25;1.10;99.90
19363;DHT22;9817;50.80926400;5.16316200;2022-12-18T11:18:51;1.20;99.90
19363;DHT22;9817;50.80926400;5.16316200;2022-12-18T11:21:17;1.40;99.90
19363;DHT22;9817;50.80926400;5.16316200;2022-12-18T11:23:53;1.50;99.90
19363;DHT22;9817;50.80926400;5.16316200;2022-12-18T11:26:19;1.50;99.90
19363;DHT22;9817;50.80926400;5.16316200;2022-12-18T11:28:51;1.50;99.90
19363;DHT22;9817;50.80926400;5.16316200;2022-12-18T11:31:28;1.50;99.90
19363;DHT22;9817;50.80926400;5.16316200;2022-12-18T11:36:32;1.50;99.90
19363;DHT22;9817;50.80926400;5.16316200;2022-12-18T11:39:02;1.60;99.90
19363;DHT22;9817;50.80926400;5.16316200;2022-12-18T11:41:34;1.60;99.90
19363;DHT22;9817;50.80926400;5.16316200;2022-12-18T11:44:27;1.90;99.90
19363;DHT22;9817;50.80926400;5.16316200;2022-12-18T11:47:05;2.00;99.90
19363;DHT22;9817;50.80926400;5.16316200;2022-12-18T11:49:35;2.10;99.90
19363;DHT22;9817;50.80926400;5.16316200;2022-12-18T11:55:12;2.50;99.90
19363;DHT22;9817;50.80926400;5.16316200;2022-12-18T11:57:58;2.60;99.90
19363;DHT22;9817;50.80926400;5.16316200;2022-12-18T12:00:27;2.70;99.90
19363;DHT22;9817;50.80926400;5.16316200;2022-12-18T12:11:50;2.90;99.90
19363;DHT22;9817;50.80926400;5.16316200;2022-12-18T12:17:04;2.90;99.90
19363;DHT22;9817;50.80926400;5.16316200;2022-12-18T12:22:32;2.70;99.90
19363;DHT22;9817;50.80926400;5.16316200;2022-12-18T12:30:44;2.90;99.90
19363;DHT22;9817;50.80926400;5.16316200;2022-12-18T12:34:15;3.00;99.90
19363;DHT22;9817;50.80926400;5.16316200;2022-12-18T12:38:54;3.10;99.90
19363;DHT22;9817;50.80926400;5.16316200;2022-12-18T12:41:24;3.20;99.90
19363;DHT22;9817;50.80926400;5.16316200;2022-12-18T12:44:17;3.20;99.90
19363;DHT22;9817;50.80926400;5.16316200;2022-12-18T12:46:45;3.20;99.90
19363;DHT22;9817;50.80926400;5.16316200;2022-12-18T12:49:15;3.20;99.90
19363;DHT22;9817;50.80926400;5.16316200;2022-12-18T12:52:31;3.20;99.90
19363;DHT22;9817;50.80926400;5.16316200;2022-12-18T12:54:32;3.30;99.90
19363;DHT22;9817;50.80926400;5.16316200;2022-12-18T12:57:21;3.40;99.90
19363;DHT22;9817;50.80926400;5.16316200;2022-12-18T13:00:07;3.40;99.90
19363;DHT22;9817;50.80926400;5.16316200;2022-12-18T13:02:46;3.40;99.90
19363;DHT22;9817;50.80926400;5.16316200;2022-12-18T13:08:31;3.50;99.90
19363;DHT22;9817;50.80926400;5.16316200;2022-12-18T13:10:58;3.50;99.90
19363;DHT22;9817;50.80926400;5.16316200;2022-12-18T13:13:54;3.50;99.90
19363;DHT22;9817;50.80926400;5.16316200;2022-12-18T13:16:23;3.50;99.90
19363;DHT22;9817;50.80926400;5.16316200;2022-12-18T13:18:53;3.50;99.90
19363;DHT22;9817;50.80926400;5.16316200;2022-12-18T13:21:26;3.50;99.90
19363;DHT22;9817;50.80926400;5.16316200;2022-12-18T13:23:53;3.60;99.90
19363;DHT22;9817;50.80926400;5.16316200;2022-12-18T13:34:20;3.10;99.90
19363;DHT22;9817;50.80926400;5.16316200;2022-12-18T13:36:47;3.00;99.90
19363;DHT22;9817;50.80926400;5.16316200;2022-12-18T13:44:39;2.90;99.90
19363;DHT22;9817;50.80926400;5.16316200;2022-12-18T13:49:50;3.10;99.90
19363;DHT22;9817;50.80926400;5.16316200;2022-12-18T13:52:22;3.10;99.90
19363;DHT22;9817;50.80926400;5.16316200;2022-12-18T13:54:55;3.10;99.90
19363;DHT22;9817;50.80926400;5.16316200;2022-12-18T13:57:32;3.10;99.90
19363;DHT22;9817;50.80926400;5.16316200;2022-12-18T14:00:25;3.10;99.90
19363;DHT22;9817;50.80926400;5.16316200;2022-12-18T14:02:51;3.20;99.90
19363;DHT22;9817;50.80926400;5.16316200;2022-12-18T14:05:36;3.10;99.90
19363;DHT22;9817;50.80926400;5.16316200;2022-12-18T14:08:09;3.20;99.90
19363;DHT22;9817;50.80926400;5.16316200;2022-12-18T14:10:39;3.30;99.90
19363;DHT22;9817;50.80926400;5.16316200;2022-12-18T14:13:08;3.20;99.90
19363;DHT22;9817;50.80926400;5.16316200;2022-12-18T14:15:35;3.10;99.90
19363;DHT22;9817;50.80926400;5.16316200;2022-12-18T14:18:12;3.00;99.90
19363;DHT22;9817;50.80926400;5.16316200;2022-12-18T14:20:44;3.00;99.90
19363;DHT22;9817;50.80926400;5.16316200;2022-12-18T14:25:58;2.90;99.90
19363;DHT22;9817;50.80926400;5.16316200;2022-12-18T14:28:24;3.00;99.90
19363;DHT22;9817;50.80926400;5.16316200;2022-12-18T14:30:51;2.90;99.90
19363;DHT22;9817;50.80926400;5.16316200;2022-12-18T14:33:22;2.80;99.90
19363;DHT22;9817;50.80926400;5.16316200;2022-12-18T14:35:58;2.70;99.90
19363;DHT22;9817;50.80926400;5.16316200;2022-12-18T14:43:24;2.80;99.90
19363;DHT22;9817;50.80926400;5.16316200;2022-12-18T14:45:51;2.60;99.90
19363;DHT22;9817;50.80926400;5.16316200;2022-12-18T14:48:38;2.70;99.90
19363;DHT22;9817;50.80926400;5.16316200;2022-12-18T14:51:17;2.80;99.90
19363;DHT22;9817;50.80926400;5.16316200;2022-12-18T14:53:45;2.80;99.90
19363;DHT22;9817;50.80926400;5.16316200;2022-12-18T14:56:34;2.90;99.90
19363;DHT22;9817;50.80926400;5.16316200;2022-12-18T15:01:36;2.90;99.90
19363;DHT22;9817;50.80926400;5.16316200;2022-12-18T15:04:04;2.90;99.90
19363;DHT22;9817;50.80926400;5.16316200;2022-12-18T15:06:37;2.80;99.90
19363;DHT22;9817;50.80926400;5.16316200;2022-12-18T15:09:24;2.80;99.90
19363;DHT22;9817;50.80926400;5.16316200;2022-12-18T15:11:56;2.80;99.90
19363;DHT22;9817;50.80926400;5.16316200;2022-12-18T15:14:40;2.80;99.90
19363;DHT22;9817;50.80926400;5.16316200;2022-12-18T15:17:18;2.80;99.90
19363;DHT22;9817;50.80926400;5.16316200;2022-12-18T15:19:45;2.80;99.90
19363;DHT22;9817;50.80926400;5.16316200;2022-12-18T15:22:33;2.70;99.90
19363;DHT22;9817;50.80926400;5.16316200;2022-12-18T15:25:00;2.60;99.90
19363;DHT22;9817;50.80926400;5.16316200;2022-12-18T15:27:35;2.50;99.90
19363;DHT22;9817;50.80926400;5.16316200;2022-12-18T15:30:17;2.60;99.90
19363;DHT22;9817;50.80926400;5.16316200;2022-12-18T15:32:44;2.70;99.90
19363;DHT22;9817;50.80926400;5.16316200;2022-12-18T15:35:20;2.70;99.90
19363;DHT22;9817;50.80926400;5.16316200;2022-12-18T15:37:46;2.70;99.90